createdAt,value
2022-07-26T00:03:01.025Z,99176.03
2022-07-26T00:07:05.048Z,99181.78
2022-07-26T00:11:07.929Z,99177.03
2022-07-26T00:15:11.896Z,99182.63
2022-07-26T00:19:14.648Z,99190.38
2022-07-26T00:23:17.001Z,99193.66
2022-07-26T00:27:18.849Z,99197.78
2022-07-26T00:31:21.805Z,99186.06
2022-07-26T00:35:25.726Z,99196.97
2022-07-26T00:39:30.074Z,99208.09
2022-07-26T00:43:32.567Z,99207.53
2022-07-26T00:47:35.920Z,99209.00
2022-07-26T00:51:37.590Z,99219.28
2022-07-26T00:55:41.287Z,99212.25
2022-07-26T00:59:45.488Z,99213.53
2022-07-26T01:03:53.185Z,99226.28
2022-07-26T01:07:55.608Z,99219.91
2022-07-26T01:11:57.819Z,99232.41
2022-07-26T01:16:00.776Z,99233.84
2022-07-26T01:20:02.569Z,99235.91
2022-07-26T01:24:04.732Z,99243.22
2022-07-26T01:28:08.878Z,99243.56
2022-07-26T01:32:10.337Z,99235.13
2022-07-26T01:36:12.723Z,99241.44
2022-07-26T01:40:14.402Z,99248.59
2022-07-26T01:44:16.176Z,99250.69
2022-07-26T01:48:22.730Z,99248.53
2022-07-26T01:52:46.461Z,99260.38
2022-07-26T01:56:48.337Z,99267.50
2022-07-26T02:00:49.843Z,99279.91
2022-07-26T02:04:59.221Z,99278.25
2022-07-26T02:09:00.695Z,99273.19
2022-07-26T02:13:03.465Z,99282.06
2022-07-26T02:17:11.313Z,99279.59
2022-07-26T02:21:12.968Z,99290.13
2022-07-26T02:25:17.541Z,99290.22
2022-07-26T02:29:19.119Z,99288.31
2022-07-26T02:33:21.041Z,99283.78
2022-07-26T02:37:23.864Z,99286.38
2022-07-26T02:41:25.921Z,99289.78
2022-07-26T02:45:28.536Z,99297.50
2022-07-26T02:49:30.593Z,99295.50
2022-07-26T02:53:32.990Z,99294.38
2022-07-26T02:57:46.213Z,99303.09
2022-07-26T03:01:48.324Z,99298.72
2022-07-26T03:05:50.559Z,99302.25
2022-07-26T03:09:52.132Z,99311.94
2022-07-26T03:13:54.489Z,99305.84
2022-07-26T03:17:57.534Z,99310.31
2022-07-26T03:22:00.165Z,99305.19
2022-07-26T03:26:03.043Z,99304.28
2022-07-26T03:30:05.779Z,99303.78
2022-07-26T03:34:08.447Z,99300.72
2022-07-26T03:38:10.155Z,99293.78
2022-07-26T03:42:11.630Z,99309.91
2022-07-26T03:46:13.269Z,99314.56
2022-07-26T03:50:14.811Z,99316.59
2022-07-26T03:54:17.881Z,99313.50
2022-07-26T03:58:19.478Z,99321.63
2022-07-26T04:02:20.962Z,99328.84
2022-07-26T04:06:23.239Z,99325.50
2022-07-26T04:10:24.987Z,99323.91
2022-07-26T04:14:26.670Z,99324.16
2022-07-26T04:18:28.260Z,99324.25
2022-07-26T04:22:29.796Z,99327.72
2022-07-26T04:26:31.251Z,99327.63
2022-07-26T04:30:32.824Z,99334.41
2022-07-26T04:34:34.329Z,99337.69
2022-07-26T04:38:35.944Z,99336.69
2022-07-26T04:42:37.723Z,99341.66
2022-07-26T04:46:39.303Z,99341.38
2022-07-26T04:50:46.592Z,99352.56
2022-07-26T04:54:48.003Z,99357.44
2022-07-26T04:58:49.581Z,99348.31
2022-07-26T05:02:53.659Z,99353.16
2022-07-26T05:07:02.361Z,99357.06
2022-07-26T05:11:04.387Z,99366.25
2022-07-26T05:15:07.074Z,99358.88
2022-07-26T05:19:16.104Z,99358.31
2022-07-26T05:23:17.691Z,99360.66
2022-07-26T05:27:20.247Z,99350.84
2022-07-26T05:31:40.570Z,99350.91
2022-07-26T05:35:46.319Z,99350.53
2022-07-26T05:39:48.349Z,99352.50
2022-07-26T05:43:50.099Z,99354.38
2022-07-26T05:47:55.238Z,99353.38
2022-07-26T05:52:02.566Z,99349.50
2022-07-26T05:56:05.041Z,99356.00
2022-07-26T06:00:08.164Z,99354.06
2022-07-26T06:04:10.814Z,99355.06
2022-07-26T06:08:12.615Z,99344.72
2022-07-26T06:12:15.375Z,99360.31
2022-07-26T06:16:18.310Z,99357.03
2022-07-26T06:20:26.982Z,99356.81
2022-07-26T06:24:33.220Z,99366.00
2022-07-26T06:28:38.636Z,99361.78
2022-07-26T06:32:44.275Z,99366.56
2022-07-26T06:36:47.157Z,99358.63
2022-07-26T06:40:50.182Z,99360.16
2022-07-26T06:44:51.699Z,99375.06
2022-07-26T06:48:56.911Z,99368.66
2022-07-26T06:53:00.706Z,99364.56
2022-07-26T06:57:06.990Z,99370.13
2022-07-26T07:01:08.830Z,99369.69
2022-07-26T07:05:14.613Z,99368.88
2022-07-26T07:09:16.293Z,99366.22
2022-07-26T07:13:18.219Z,99371.88
2022-07-26T07:17:20.569Z,99364.91
2022-07-26T07:21:22.302Z,99366.22
2022-07-26T07:25:30.268Z,99377.94
2022-07-26T07:29:32.570Z,99378.41
2022-07-26T07:33:43.866Z,99378.41
2022-07-26T07:37:55.115Z,99370.41
2022-07-26T07:41:57.539Z,99377.31
2022-07-26T07:45:58.944Z,99373.56
2022-07-26T07:50:00.503Z,99370.53
2022-07-26T07:54:05.447Z,99369.50
2022-07-26T07:58:07.595Z,99367.50
2022-07-26T08:02:09.661Z,99361.25
2022-07-26T08:06:11.027Z,99358.91
2022-07-26T08:10:12.865Z,99370.81
2022-07-26T08:14:16.073Z,99369.47
2022-07-26T08:18:22.730Z,99371.19
2022-07-26T08:22:25.558Z,99377.63
2022-07-26T08:26:27.961Z,99375.91
2022-07-26T08:30:32.209Z,99380.81
2022-07-26T08:34:34.362Z,99385.63
2022-07-26T08:38:35.793Z,99377.28
2022-07-26T08:42:37.385Z,99389.16
2022-07-26T08:46:39.839Z,99389.97
2022-07-26T08:50:41.862Z,99387.53
2022-07-26T08:54:52.322Z,99382.53
2022-07-26T08:58:53.853Z,99393.44
2022-07-26T09:02:56.315Z,99385.44
2022-07-26T09:07:02.587Z,99381.53
2022-07-26T09:11:23.999Z,99389.72
2022-07-26T09:15:27.620Z,99381.75
2022-07-26T09:19:29.104Z,99390.72
2022-07-26T09:23:41.327Z,99393.31
2022-07-26T09:27:42.808Z,99394.06
2022-07-26T09:31:44.702Z,99390.22
2022-07-26T09:36:04.894Z,99395.25
2022-07-26T09:40:12.505Z,99395.13
2022-07-26T09:44:26.293Z,99395.75
2022-07-26T09:48:45.927Z,99397.25
2022-07-26T09:53:11.495Z,99388.03
2022-07-26T09:57:16.560Z,99400.41
2022-07-26T10:01:18.055Z,99394.56
2022-07-26T10:05:21.788Z,99400.31
2022-07-26T10:09:23.846Z,99399.47
2022-07-26T10:13:27.543Z,99396.66
2022-07-26T10:17:31.315Z,99393.44
2022-07-26T10:21:35.233Z,99396.09
2022-07-26T10:25:39.794Z,99396.25
2022-07-26T10:29:41.278Z,99398.19
2022-07-26T10:33:46.819Z,99399.53
2022-07-26T10:37:59.390Z,99391.88
2022-07-26T10:42:04.412Z,99392.44
2022-07-26T10:46:18.333Z,99398.06
2022-07-26T10:50:33.042Z,99397.25
2022-07-26T10:54:56.687Z,99392.22
2022-07-26T10:58:59.361Z,99391.59
2022-07-26T11:03:07.915Z,99390.00
2022-07-26T11:07:09.434Z,99386.69
2022-07-26T11:11:21.960Z,99382.88
2022-07-26T11:15:24.274Z,99373.56
2022-07-26T11:19:29.009Z,99377.84
2022-07-26T11:23:39.070Z,99373.28
2022-07-26T11:27:58.971Z,99376.56
2022-07-26T11:32:16.449Z,99370.38
2022-07-26T11:36:31.762Z,99367.88
2022-07-26T11:40:47.743Z,99361.81
2022-07-26T11:44:50.160Z,99367.84
2022-07-26T11:48:53.350Z,99365.22
2022-07-26T11:52:55.830Z,99379.19
2022-07-26T11:56:59.562Z,99370.75
2022-07-26T12:01:01.172Z,99361.03
2022-07-26T12:05:17.859Z,99363.94
2022-07-26T12:09:40.629Z,99354.47
2022-07-26T12:14:00.287Z,99356.09
2022-07-26T12:18:01.895Z,99363.97
2022-07-26T12:22:14.434Z,99362.63
2022-07-26T12:26:25.073Z,99366.00
2022-07-26T12:30:30.819Z,99363.09
2022-07-26T12:34:33.710Z,99353.97
2022-07-26T12:38:40.226Z,99349.13
2022-07-26T12:43:02.207Z,99356.03
2022-07-26T12:47:05.698Z,99352.84
2022-07-26T12:51:07.489Z,99349.84
2022-07-26T12:55:13.066Z,99353.22
2022-07-26T12:59:17.611Z,99351.84
2022-07-26T13:03:19.454Z,99353.41
2022-07-26T13:07:20.974Z,99346.78
2022-07-26T13:11:22.311Z,99350.41
2022-07-26T13:15:23.850Z,99346.06
2022-07-26T13:19:39.575Z,99347.31
2022-07-26T13:23:41.002Z,99339.66
2022-07-26T13:27:44.728Z,99339.34
2022-07-26T13:31:46.909Z,99335.34
2022-07-26T13:35:50.229Z,99335.44
2022-07-26T13:39:51.978Z,99340.38
2022-07-26T13:43:54.101Z,99343.03
2022-07-26T13:47:55.561Z,99331.28
2022-07-26T13:51:57.669Z,99336.81
2022-07-26T13:55:59.213Z,99334.34
2022-07-26T14:00:00.890Z,99331.00
2022-07-26T14:04:03.097Z,99328.66
2022-07-26T14:08:05.532Z,99323.03
2022-07-26T14:12:07.231Z,99320.75
2022-07-26T14:16:10.563Z,99315.81
2022-07-26T14:20:12.305Z,99311.88
2022-07-26T14:24:14.274Z,99321.59
2022-07-26T14:28:18.075Z,99315.06
2022-07-26T14:32:21.980Z,99311.47
2022-07-26T14:36:24.050Z,99305.63
2022-07-26T14:40:25.473Z,99306.88
2022-07-26T14:44:27.330Z,99303.94
2022-07-26T14:48:53.017Z,99313.84
2022-07-26T14:52:50.462Z,99303.09
2022-07-26T14:56:51.975Z,99305.75
2022-07-26T15:00:53.699Z,99304.38
2022-07-26T15:04:55.379Z,99302.63
2022-07-26T15:08:56.943Z,99311.06
2022-07-26T15:13:00.306Z,99312.53
2022-07-26T15:17:01.800Z,99308.06
2022-07-26T15:21:03.433Z,99300.06
2022-07-26T15:25:05.005Z,99299.66
2022-07-26T15:29:06.477Z,99300.34
2022-07-26T15:33:08.076Z,99291.78
2022-07-26T15:37:09.520Z,99288.91
2022-07-26T15:41:10.934Z,99292.59
2022-07-26T15:45:13.262Z,99280.03
2022-07-26T15:49:16.759Z,99288.13
2022-07-26T15:53:18.442Z,99282.09
2022-07-26T15:57:20.038Z,99276.09
2022-07-26T16:01:21.646Z,99282.69
2022-07-26T16:05:23.109Z,99285.28
2022-07-26T16:09:24.670Z,99272.06
2022-07-26T16:13:26.065Z,99270.47
2022-07-26T16:17:27.493Z,99270.47
2022-07-26T16:21:28.926Z,99274.13
2022-07-26T16:25:30.389Z,99269.63
2022-07-26T16:29:32.015Z,99273.16
2022-07-26T16:33:33.366Z,99270.50
2022-07-26T16:37:34.851Z,99265.56
2022-07-26T16:41:36.437Z,99275.75
2022-07-26T16:45:37.912Z,99265.19
2022-07-26T16:49:39.636Z,99268.38
2022-07-26T16:53:41.341Z,99269.72
2022-07-26T16:57:43.724Z,99262.50
2022-07-26T17:01:45.316Z,99258.41
2022-07-26T17:05:47.241Z,99263.09
2022-07-26T17:09:48.765Z,99256.56
2022-07-26T17:13:50.383Z,99257.91
2022-07-26T17:17:51.867Z,99263.72
2022-07-26T17:21:53.735Z,99261.53
2022-07-26T17:25:55.211Z,99254.94
2022-07-26T17:29:57.007Z,99256.56
2022-07-26T17:33:58.589Z,99250.16
2022-07-26T17:38:00.096Z,99249.22
2022-07-26T17:42:02.082Z,99250.63
2022-07-26T17:46:04.051Z,99245.53
2022-07-26T17:54:29.472Z,99251.22
2022-07-26T17:58:31.182Z,99255.06
2022-07-26T18:02:32.593Z,99255.72
2022-07-26T18:06:34.242Z,99256.19
2022-07-26T18:10:36.906Z,99247.81
2022-07-26T18:14:38.394Z,99250.03
2022-07-26T18:18:40.435Z,99250.41
2022-07-26T18:22:42.000Z,99256.09
2022-07-26T18:26:47.375Z,99246.03
2022-07-26T18:30:48.933Z,99248.44
2022-07-26T18:34:51.508Z,99249.84
2022-07-26T18:38:53.950Z,99249.69
2022-07-26T18:42:55.879Z,99251.06
2022-07-26T18:46:58.548Z,99252.84
2022-07-26T18:51:00.087Z,99248.22
2022-07-26T18:55:06.942Z,99240.44
2022-07-26T18:59:08.959Z,99247.34
2022-07-26T19:03:10.778Z,99244.00
2022-07-26T19:07:12.235Z,99244.78
2022-07-26T19:11:14.854Z,99251.97
2022-07-26T19:15:16.835Z,99263.72
2022-07-26T19:19:18.234Z,99265.59
2022-07-26T19:23:19.811Z,99269.75
2022-07-26T19:27:21.498Z,99288.91
2022-07-26T19:31:23.219Z,99287.53
2022-07-26T19:35:24.757Z,99294.44
2022-07-26T19:39:26.528Z,99296.56
2022-07-26T19:43:28.589Z,99300.72
2022-07-26T19:47:30.191Z,99298.81
2022-07-26T19:51:31.917Z,99310.94
2022-07-26T19:55:33.596Z,99306.16
2022-07-26T19:59:35.263Z,99318.38
2022-07-26T20:03:36.858Z,99313.66
2022-07-26T20:07:38.996Z,99319.84
2022-07-26T20:11:40.398Z,99314.22
2022-07-26T20:15:42.030Z,99322.59
2022-07-26T20:19:43.728Z,99317.53
2022-07-26T20:23:45.815Z,99325.59
2022-07-26T20:27:48.363Z,99325.78
2022-07-26T20:31:49.810Z,99318.06
2022-07-26T20:35:55.129Z,99332.06
2022-07-26T20:39:56.971Z,99332.41
2022-07-26T20:43:58.395Z,99330.56
2022-07-26T20:48:00.535Z,99328.19
2022-07-26T20:52:04.375Z,99337.53
2022-07-26T20:56:05.818Z,99337.50
2022-07-26T21:00:10.833Z,99335.81
2022-07-26T21:04:12.567Z,99342.19
2022-07-26T21:08:14.356Z,99342.97
2022-07-26T21:12:16.000Z,99335.03
2022-07-26T21:16:17.542Z,99334.16
2022-07-26T21:20:19.724Z,99339.50
2022-07-26T21:24:21.810Z,99335.44
2022-07-26T21:28:23.528Z,99332.09
2022-07-26T21:32:29.719Z,99341.03
2022-07-26T21:36:33.359Z,99339.41
2022-07-26T21:40:35.857Z,99340.41
2022-07-26T21:44:37.396Z,99345.41
2022-07-26T21:48:39.334Z,99341.06
2022-07-26T21:52:40.948Z,99340.41
2022-07-26T21:56:42.452Z,99336.19
2022-07-26T22:00:44.031Z,99343.28
2022-07-26T22:04:45.712Z,99338.19
2022-07-26T22:08:47.319Z,99337.56
2022-07-26T22:12:48.786Z,99342.78
2022-07-26T22:16:50.584Z,99341.13
2022-07-26T22:20:52.523Z,99338.91
2022-07-26T22:24:54.051Z,99338.97
2022-07-26T22:28:55.583Z,99336.50
2022-07-26T22:32:58.708Z,99343.66
2022-07-26T22:37:00.156Z,99347.44
2022-07-26T22:41:01.801Z,99345.88
2022-07-26T22:45:03.521Z,99351.16
2022-07-26T22:49:11.949Z,99351.09
2022-07-26T22:53:16.703Z,99352.69
2022-07-26T22:57:18.105Z,99345.34
2022-07-26T23:01:19.614Z,99344.91
2022-07-26T23:05:21.597Z,99342.66
2022-07-26T23:09:27.046Z,99348.28
2022-07-26T23:13:28.838Z,99351.31
2022-07-26T23:17:30.279Z,99359.78
2022-07-26T23:21:32.054Z,99356.00
2022-07-26T23:25:33.859Z,99359.44
2022-07-26T23:29:35.469Z,99348.03
2022-07-26T23:33:53.282Z,99346.28
2022-07-26T23:37:56.033Z,99345.41
2022-07-26T23:41:58.292Z,99354.16
2022-07-26T23:45:59.666Z,99364.66
2022-07-26T23:50:01.136Z,99367.22
2022-07-26T23:54:02.680Z,99358.38
2022-07-26T23:58:04.880Z,99372.38
